Time;durP1;ratioP1;P1;durP2;ratioP2;P2;SDS_P1;SDS_P2;PMS_P1;PMS_P2;Temp;Humidity;BMP_temperature;BMP_pressure;BME280_temperature;BME280_humidity;BME280_pressure;Samples;Min_cycle;Max_cycle;Signal;HPM_P1;HPM_P2
2023/03/27 00:00:19;;;;;;;;;;;;;;;;;;4975472;28;20016;-68
2023/03/27 00:02:48;;;;;;;;;;;;;;;;;;4995524;28;20360;-68
2023/03/27 00:05:15;;;;;;;;;;;;;;;;;;4996202;28;20269;-68
2023/03/27 00:07:41;;;;;;;;;;;;;;;;;;4997834;28;20063;-69
2023/03/27 00:13:23;;;;;;;;;;;;;;;;;;4999304;28;20072;-68
2023/03/27 00:15:49;;;;;;;;;;;;;;;;;;4985910;28;20013;-68
2023/03/27 00:18:14;;;;;;;;;;;;;;;;;;4963759;28;20047;-67
2023/03/27 00:20:41;;;;;;;;;;;;;;;;;;4979628;28;20420;-66
2023/03/27 00:23:06;;;;;;;;;;;;;;;;;;4980755;28;19925;-67
2023/03/27 00:25:32;;;;;;;;;;;;;;;;;;5000145;28;19921;-67
2023/03/27 00:27:58;;;;;;;;;;;;;;;;;;4966444;28;20177;-67
2023/03/27 00:30:23;;;;;;;;;;;;;;;;;;4960875;28;20639;-67
2023/03/27 00:32:49;;;;;;;;;;;;;;;;;;5000254;28;19924;-67
2023/03/27 00:35:15;;;;;;;;;;;;;;;;;;4967337;28;19964;-67
2023/03/27 00:37:41;;;;;;;;;;;;;;;;;;4978811;28;19917;-67
2023/03/27 00:40:14;;;;;;;;;;;;;;;;;;4964202;28;19947;-67
2023/03/27 00:42:39;;;;;;;;;;;;;;;;;;4984040;28;19997;-67
2023/03/27 00:45:05;;;;;;;;;;;;;;;;;;5001106;28;19921;-66
2023/03/27 00:47:31;;;;;;;;;;;;;;;;;;4978772;28;20719;-65
2023/03/27 00:49:57;;;;;;;;;;;;;;;;;;4965688;28;20007;-66
2023/03/27 00:52:28;;;;;;;;;;;;;;;;;;5001192;28;19921;-67
2023/03/27 00:54:53;;;;;;;;;;;;;;;;;;5019943;28;19925;-67
2023/03/27 00:57:20;;;;;;;;;;;;;;;;;;5003913;28;19921;-66
2023/03/27 00:59:46;;;;;;;;;;;;;;;;;;5019291;28;19925;-65
2023/03/27 01:02:11;;;;;;;;;;;;;;;;;;5021318;28;20364;-66
2023/03/27 01:04:36;;;;;;;;;;;;;;;;;;4986186;28;19978;-67
2023/03/27 01:07:06;;;;;;;;;;;;;;;;;;4985325;28;19921;-66
2023/03/27 01:09:32;;;;;;;;;;;;;;;;;;4995112;28;19935;-66
2023/03/27 01:11:57;;;;;;;;;;;;;;;;;;5032092;28;20272;-66
2023/03/27 01:14:26;;;;;;;;;;;;;;;;;;4981595;28;19921;-66
2023/03/27 01:16:52;;;;;;;;;;;;;;;;;;5017079;28;19920;-66
2023/03/27 01:19:20;;;;;;;;;;;;;;;;;;5002229;28;20379;-67
2023/03/27 01:21:46;;;;;;;;;;;;;;;;;;4985080;28;19917;-67
2023/03/27 01:24:13;;;;;;;;;;;;;;;;;;5007406;28;19925;-67
2023/03/27 01:26:38;;;;;;;;;;;;;;;;;;5000141;28;20055;-67
2023/03/27 01:29:04;;;;;;;;;;;;;;;;;;4986182;28;19923;-67
2023/03/27 01:31:30;;;;;;;;;;;;;;;;;;5021494;28;19921;-67
2023/03/27 01:33:56;;;;;;;;;;;;;;;;;;5017521;28;19916;-67
2023/03/27 01:36:21;;;;;;;;;;;;;;;;;;5017422;28;20315;-69
2023/03/27 01:38:46;;;;;;;;;;;;;;;;;;4987410;28;19921;-66
2023/03/27 01:41:12;;;;;;;;;;;;;;;;;;4998108;28;20439;-67
2023/03/27 01:43:38;;;;;;;;;;;;;;;;;;5019277;28;20058;-66
2023/03/27 01:46:05;;;;;;;;;;;;;;;;;;5037024;28;19916;-67
2023/03/27 01:48:31;;;;;;;;;;;;;;;;;;5017595;28;19921;-65
2023/03/27 01:50:59;;;;;;;;;;;;;;;;;;4998474;28;20352;-65
2023/03/27 01:53:25;;;;;;;;;;;;;;;;;;4999465;28;19986;-66
2023/03/27 01:55:51;;;;;;;;;;;;;;;;;;5032620;28;19921;-66
2023/03/27 01:58:17;;;;;;;;;;;;;;;;;;5020833;28;19952;-66
2023/03/27 02:00:42;;;;;;;;;;;;;;;;;;4998200;28;19932;-66
2023/03/27 02:03:08;;;;;;;;;;;;;;;;;;5019120;28;19921;-66
2023/03/27 02:05:34;;;;;;;;;;;;;;;;;;5018836;28;19927;-66
2023/03/27 02:07:59;;;;;;;;;;;;;;;;;;4994318;28;20620;-65
2023/03/27 02:10:25;;;;;;;;;;;;;;;;;;4995064;28;19921;-65
2023/03/27 02:12:50;;;;;;;;;;;;;;;;;;5013291;28;20369;-65
2023/03/27 02:15:16;;;;;;;;;;;;;;;;;;5000980;28;20483;-65
2023/03/27 02:17:43;;;;;;;;;;;;;;;;;;5000256;28;20319;-66
2023/03/27 02:20:15;;;;;;;;;;;;;;;;;;4982555;28;20419;-65
2023/03/27 02:22:40;;;;;;;;;;;;;;;;;;4996568;28;19921;-66
2023/03/27 02:25:05;;;;;;;;;;;;;;;;;;5000275;28;20317;-65
2023/03/27 02:27:31;;;;;;;;;;;;;;;;;;5013038;28;19975;-65
2023/03/27 02:29:57;;;;;;;;;;;;;;;;;;5032521;28;20492;-65
2023/03/27 02:32:22;;;;;;;;;;;;;;;;;;5003029;28;21736;-67
2023/03/27 02:34:49;;;;;;;;;;;;;;;;;;5015143;28;20789;-64
2023/03/27 02:37:16;;;;;;;;;;;;;;;;;;5001876;28;19925;-65
2023/03/27 02:39:41;;;;;;;;;;;;;;;;;;5017444;28;20451;-65
2023/03/27 02:42:07;;;;;;;;;;;;;;;;;;5031270;28;19921;-64
2023/03/27 02:44:32;;;;;;;;;;;;;;;;;;5020835;28;19924;-65
2023/03/27 02:46:57;;;;;;;;;;;;;;;;;;4994456;28;19928;-65
2023/03/27 02:49:23;;;;;;;;;;;;;;;;;;5029170;28;19927;-65
2023/03/27 02:51:48;;;;;;;;;;;;;;;;;;5019460;28;20495;-65
2023/03/27 02:54:13;;;;;;;;;;;;;;;;;;5018192;28;19924;-65
2023/03/27 02:56:39;;;;;;;;;;;;;;;;;;5000873;28;19921;-65
2023/03/27 02:59:04;;;;;;;;;;;;;;;;;;5005663;28;19960;-66
2023/03/27 03:01:31;;;;;;;;;;;;;;;;;;5004818;28;19967;-66
2023/03/27 03:03:56;;;;;;;;;;;;;;;;;;5019901;28;20304;-66
2023/03/27 03:06:28;;;;;;;;;;;;;;;;;;4997675;28;20532;-65
2023/03/27 03:09:01;;;;;;;;;;;;;;;;;;4987212;28;19917;-65
2023/03/27 03:11:30;;;;;;;;;;;;;;;;;;5019693;28;19960;-66
2023/03/27 03:13:55;;;;;;;;;;;;;;;;;;5002397;28;20035;-64
2023/03/27 03:16:21;;;;;;;;;;;;;;;;;;5002324;28;20018;-64
2023/03/27 03:18:49;;;;;;;;;;;;;;;;;;4998581;28;19939;-64
2023/03/27 03:21:15;;;;;;;;;;;;;;;;;;4997617;28;19925;-64
2023/03/27 03:23:40;;;;;;;;;;;;;;;;;;5002837;28;20422;-64
2023/03/27 03:26:06;;;;;;;;;;;;;;;;;;4995773;28;20276;-65
2023/03/27 03:28:34;;;;;;;;;;;;;;;;;;5001854;28;19920;-65
2023/03/27 03:31:01;;;;;;;;;;;;;;;;;;4993167;28;19916;-65
2023/03/27 03:33:28;;;;;;;;;;;;;;;;;;5031318;28;20407;-65
2023/03/27 03:35:57;;;;;;;;;;;;;;;;;;5016139;28;19917;-65
2023/03/27 03:38:26;;;;;;;;;;;;;;;;;;5001650;28;21246;-66
2023/03/27 03:40:52;;;;;;;;;;;;;;;;;;5016709;28;19922;-66
2023/03/27 03:43:17;;;;;;;;;;;;;;;;;;5018552;28;19928;-65
2023/03/27 03:45:43;;;;;;;;;;;;;;;;;;5016904;28;20770;-65
2023/03/27 03:48:08;;;;;;;;;;;;;;;;;;4984441;28;19917;-63
2023/03/27 03:50:34;;;;;;;;;;;;;;;;;;4996913;28;19917;-64
2023/03/27 03:53:00;;;;;;;;;;;;;;;;;;5017814;28;19978;-65
2023/03/27 03:55:26;;;;;;;;;;;;;;;;;;5001046;28;19921;-64
2023/03/27 03:57:52;;;;;;;;;;;;;;;;;;4999206;28;20355;-64
2023/03/27 04:00:18;;;;;;;;;;;;;;;;;;4997807;28;19943;-64
2023/03/27 04:06:06;;;;;;;;;;;;;;;;;;5016487;28;19923;-65
2023/03/27 04:08:31;;;;;;;;;;;;;;;;;;4995685;28;19917;-65
2023/03/27 04:10:57;;;;;;;;;;;;;;;;;;4996632;28;19928;-66
2023/03/27 04:13:22;;;;;;;;;;;;;;;;;;5013608;28;20989;-64
2023/03/27 04:15:47;;;;;;;;;;;;;;;;;;4984905;28;19921;-65
2023/03/27 04:18:18;;;;;;;;;;;;;;;;;;5001678;28;19948;-65
2023/03/27 04:20:48;;;;;;;;;;;;;;;;;;4998571;28;20380;-66
2023/03/27 04:23:20;;;;;;;;;;;;;;;;;;5012077;28;20003;-65
2023/03/27 04:25:45;;;;;;;;;;;;;;;;;;4997308;28;20021;-64
2023/03/27 04:28:15;;;;;;;;;;;;;;;;;;5005506;28;20458;-64
2023/03/27 04:30:42;;;;;;;;;;;;;;;;;;4997882;28;19921;-65
2023/03/27 04:33:08;;;;;;;;;;;;;;;;;;4980472;28;19920;-63
2023/03/27 04:35:34;;;;;;;;;;;;;;;;;;4993746;28;19944;-64
2023/03/27 04:38:01;;;;;;;;;;;;;;;;;;4997699;28;19917;-64
2023/03/27 04:40:29;;;;;;;;;;;;;;;;;;5018810;28;20368;-63
2023/03/27 04:42:58;;;;;;;;;;;;;;;;;;4992758;28;19933;-66
2023/03/27 04:45:24;;;;;;;;;;;;;;;;;;5002497;28;19924;-65
2023/03/27 04:47:50;;;;;;;;;;;;;;;;;;4999368;28;19921;-66
2023/03/27 04:50:15;;;;;;;;;;;;;;;;;;4998627;28;20185;-65
2023/03/27 04:52:41;;;;;;;;;;;;;;;;;;4997307;28;20376;-67
2023/03/27 04:55:07;;;;;;;;;;;;;;;;;;4979636;28;19931;-64
2023/03/27 04:57:32;;;;;;;;;;;;;;;;;;5001581;28;20445;-65
2023/03/27 04:59:57;;;;;;;;;;;;;;;;;;5018259;28;19948;-64
2023/03/27 05:02:25;;;;;;;;;;;;;;;;;;4999491;28;19929;-65
2023/03/27 05:04:51;;;;;;;;;;;;;;;;;;5021852;28;19928;-64
2023/03/27 05:07:21;;;;;;;;;;;;;;;;;;5016041;28;20541;-64
2023/03/27 05:09:48;;;;;;;;;;;;;;;;;;4999268;28;19952;-64
2023/03/27 05:12:13;;;;;;;;;;;;;;;;;;5000777;28;20039;-65
2023/03/27 05:14:39;;;;;;;;;;;;;;;;;;4994893;28;19921;-65
2023/03/27 05:17:04;;;;;;;;;;;;;;;;;;5005127;28;19964;-64
2023/03/27 05:19:30;;;;;;;;;;;;;;;;;;4999130;28;20503;-63
2023/03/27 05:21:55;;;;;;;;;;;;;;;;;;5002700;28;20035;-63
2023/03/27 05:24:20;;;;;;;;;;;;;;;;;;5017159;28;19925;-64
2023/03/27 05:26:46;;;;;;;;;;;;;;;;;;5014012;28;19928;-64
2023/03/27 05:29:14;;;;;;;;;;;;;;;;;;5008245;28;20391;-64
2023/03/27 05:31:39;;;;;;;;;;;;;;;;;;4990519;28;19921;-64
2023/03/27 05:34:05;;;;;;;;;;;;;;;;;;4976907;28;19979;-65
2023/03/27 05:36:34;;;;;;;;;;;;;;;;;;5017549;28;20367;-64
2023/03/27 05:39:00;;;;;;;;;;;;;;;;;;5021258;28;19921;-64
2023/03/27 05:41:26;;;;;;;;;;;;;;;;;;5012134;28;20388;-65
2023/03/27 05:43:51;;;;;;;;;;;;;;;;;;5014953;28;19975;-64
2023/03/27 05:46:16;;;;;;;;;;;;;;;;;;5015528;28;20388;-64
2023/03/27 05:48:45;;;;;;;;;;;;;;;;;;5017804;28;19924;-65
2023/03/27 05:51:10;;;;;;;;;;;;;;;;;;4981786;28;19951;-63
2023/03/27 05:53:38;;;;;;;;;;;;;;;;;;5007390;28;19925;-64
2023/03/27 05:56:03;;;;;;;;;;;;;;;;;;5024468;28;20475;-63
2023/03/27 05:58:29;;;;;;;;;;;;;;;;;;5007710;28;19921;-63
2023/03/27 06:00:54;;;;;;;;;;;;;;;;;;4992214;28;19944;-65
2023/03/27 06:03:20;;;;;;;;;;;;;;;;;;4980797;28;20369;-65
2023/03/27 06:05:45;;;;;;;;;;;;;;;;;;5012078;28;19917;-64
2023/03/27 06:08:10;;;;;;;;;;;;;;;;;;5019623;28;19943;-65
2023/03/27 06:10:36;;;;;;;;;;;;;;;;;;5000326;28;20587;-64
2023/03/27 06:13:01;;;;;;;;;;;;;;;;;;5001493;28;19921;-64
2023/03/27 06:15:27;;;;;;;;;;;;;;;;;;4978132;28;20015;-64
2023/03/27 06:17:54;;;;;;;;;;;;;;;;;;4991663;28;19928;-64
2023/03/27 06:20:20;;;;;;;;;;;;;;;;;;5013667;28;20013;-64
2023/03/27 06:22:48;;;;;;;;;;;;;;;;;;4982835;28;20358;-64
2023/03/27 06:25:15;;;;;;;;;;;;;;;;;;4988932;28;19917;-64
2023/03/27 06:27:41;;;;;;;;;;;;;;;;;;4993146;28;20395;-64
2023/03/27 06:30:06;;;;;;;;;;;;;;;;;;4993747;28;19959;-65
2023/03/27 06:32:35;;;;;;;;;;;;;;;;;;5011966;28;19928;-65
2023/03/27 06:35:01;;;;;;;;;;;;;;;;;;4993504;28;19916;-65
2023/03/27 06:37:32;;;;;;;;;;;;;;;;;;5015329;28;20411;-66
2023/03/27 06:39:59;;;;;;;;;;;;;;;;;;5000699;28;19921;-65
2023/03/27 06:42:24;;;;;;;;;;;;;;;;;;5004740;28;19920;-66
2023/03/27 06:44:54;;;;;;;;;;;;;;;;;;4975870;28;19968;-66
2023/03/27 06:47:19;;;;;;;;;;;;;;;;;;4996580;28;20011;-63
2023/03/27 06:49:46;;;;;;;;;;;;;;;;;;4986273;28;20001;-65
2023/03/27 06:52:11;;;;;;;;;;;;;;;;;;5012725;28;19942;-66
2023/03/27 06:54:38;;;;;;;;;;;;;;;;;;4990443;28;19975;-66
2023/03/27 06:57:04;;;;;;;;;;;;;;;;;;4991446;28;20529;-65
2023/03/27 06:59:29;;;;;;;;;;;;;;;;;;4997437;28;19921;-66
2023/03/27 07:01:55;;;;;;;;;;;;;;;;;;5013288;28;19928;-65
2023/03/27 07:04:21;;;;;;;;;;;;;;;;;;5024566;28;19924;-64
2023/03/27 07:06:47;;;;;;;;;;;;;;;;;;5016404;28;20368;-64
2023/03/27 07:09:13;;;;;;;;;;;;;;;;;;4995115;28;20051;-65
2023/03/27 07:11:38;;;;;;;;;;;;;;;;;;5010258;28;20360;-65
2023/03/27 07:14:04;;;;;;;;;;;;;;;;;;5013279;28;20488;-64
2023/03/27 07:16:30;;;;;;;;;;;;;;;;;;4979417;28;19927;-65
2023/03/27 07:18:56;;;;;;;;;;;;;;;;;;5015650;28;20026;-65
2023/03/27 07:21:21;;;;;;;;;;;;;;;;;;5018273;28;19917;-64
2023/03/27 07:23:46;;;;;;;;;;;;;;;;;;4980653;28;19932;-65
2023/03/27 07:26:12;;;;;;;;;;;;;;;;;;4973105;28;19948;-66
2023/03/27 07:28:37;;;;;;;;;;;;;;;;;;4991643;28;20039;-67
2023/03/27 07:31:02;;;;;;;;;;;;;;;;;;4982910;28;20016;-65
2023/03/27 07:33:28;;;;;;;;;;;;;;;;;;5014200;28;20641;-66
2023/03/27 07:35:53;;;;;;;;;;;;;;;;;;5002195;28;20296;-66
2023/03/27 07:38:19;;;;;;;;;;;;;;;;;;4999518;28;21466;-66
2023/03/27 07:40:45;;;;;;;;;;;;;;;;;;5007898;28;20300;-67
2023/03/27 07:43:13;;;;;;;;;;;;;;;;;;5018992;28;20512;-66
2023/03/27 07:45:38;;;;;;;;;;;;;;;;;;4984768;28;20023;-66
2023/03/27 07:51:21;;;;;;;;;;;;;;;;;;5008323;28;20008;-66
2023/03/27 07:53:48;;;;;;;;;;;;;;;;;;4968162;28;19998;-66
2023/03/27 07:56:19;;;;;;;;;;;;;;;;;;4995275;28;19916;-67
2023/03/27 07:58:44;;;;;;;;;;;;;;;;;;4976919;28;21365;-68
2023/03/27 08:01:10;;;;;;;;;;;;;;;;;;4961535;28;19940;-68
2023/03/27 08:03:37;;;;;;;;;;;;;;;;;;4983934;28;19925;-67
2023/03/27 08:06:06;;;;;;;;;;;;;;;;;;4964172;28;19928;-68
2023/03/27 08:08:32;;;;;;;;;;;;;;;;;;4971822;28;19917;-67
2023/03/27 08:10:58;;;;;;;;;;;;;;;;;;5009156;28;20392;-67
2023/03/27 08:13:24;;;;;;;;;;;;;;;;;;4956416;28;19922;-68
2023/03/27 08:15:49;;;;;;;;;;;;;;;;;;4991057;28;19925;-68
2023/03/27 08:18:14;;;;;;;;;;;;;;;;;;4995599;28;19921;-68
2023/03/27 08:20:44;;;;;;;;;;;;;;;;;;4988219;28;20558;-68
2023/03/27 08:23:09;;;;;;;;;;;;;;;;;;4993042;28;19922;-68
2023/03/27 08:25:35;;;;;;;;;;;;;;;;;;4994040;28;19924;-68
2023/03/27 08:28:03;;;;;;;;;;;;;;;;;;4973823;28;19922;-68
2023/03/27 08:30:28;;;;;;;;;;;;;;;;;;4970749;28;20039;-68
2023/03/27 08:32:54;;;;;;;;;;;;;;;;;;4981010;28;19922;-68
2023/03/27 08:35:19;;;;;;;;;;;;;;;;;;4975827;28;19928;-67
2023/03/27 08:37:45;;;;;;;;;;;;;;;;;;4993901;28;20055;-68
2023/03/27 08:40:13;;;;;;;;;;;;;;;;;;4982462;28;19921;-68
2023/03/27 08:42:38;;;;;;;;;;;;;;;;;;4983110;28;19925;-68
2023/03/27 08:45:03;;;;;;;;;;;;;;;;;;5013689;28;19991;-69
2023/03/27 08:47:29;;;;;;;;;;;;;;;;;;5000735;28;19921;-68
2023/03/27 08:49:54;;;;;;;;;;;;;;;;;;4965502;28;19990;-67
2023/03/27 08:52:22;;;;;;;;;;;;;;;;;;4973648;28;19951;-69
2023/03/27 08:54:48;;;;;;;;;;;;;;;;;;4979424;28;19936;-67
2023/03/27 08:57:13;;;;;;;;;;;;;;;;;;4994306;28;19972;-67
2023/03/27 08:59:38;;;;;;;;;;;;;;;;;;4998536;28;19917;-69
2023/03/27 09:02:04;;;;;;;;;;;;;;;;;;4981283;28;20385;-68
2023/03/27 09:04:30;;;;;;;;;;;;;;;;;;4976767;28;19925;-68
2023/03/27 09:06:58;;;;;;;;;;;;;;;;;;4980570;28;19928;-69
2023/03/27 09:09:24;;;;;;;;;;;;;;;;;;4983117;28;19921;-67
2023/03/27 09:11:50;;;;;;;;;;;;;;;;;;4976313;28;20035;-67
2023/03/27 09:14:15;;;;;;;;;;;;;;;;;;4983790;28;19917;-68
2023/03/27 09:16:47;;;;;;;;;;;;;;;;;;4983083;28;20165;-67
2023/03/27 09:19:13;;;;;;;;;;;;;;;;;;4970793;28;19921;-68
2023/03/27 09:21:39;;;;;;;;;;;;;;;;;;4998728;28;20178;-68
2023/03/27 09:24:05;;;;;;;;;;;;;;;;;;4979596;28;19921;-67
2023/03/27 09:26:31;;;;;;;;;;;;;;;;;;4982298;28;19986;-68
2023/03/27 09:28:56;;;;;;;;;;;;;;;;;;4981525;28;20361;-68
2023/03/27 09:31:25;;;;;;;;;;;;;;;;;;4980567;28;20838;-69
2023/03/27 09:33:51;;;;;;;;;;;;;;;;;;4980705;28;20052;-69
2023/03/27 09:36:16;;;;;;;;;;;;;;;;;;4983508;28;19921;-68
2023/03/27 09:38:43;;;;;;;;;;;;;;;;;;4997788;28;20790;-68
2023/03/27 09:41:08;;;;;;;;;;;;;;;;;;4999732;28;20347;-69
2023/03/27 09:43:33;;;;;;;;;;;;;;;;;;4981043;28;20034;-67
2023/03/27 09:46:00;;;;;;;;;;;;;;;;;;4980798;28;19924;-68
2023/03/27 09:48:26;;;;;;;;;;;;;;;;;;4983179;28;20020;-69
2023/03/27 09:50:51;;;;;;;;;;;;;;;;;;4981520;28;19921;-72
2023/03/27 09:56:33;;;;;;;;;;;;;;;;;;5015283;28;20008;-70
2023/03/27 09:58:59;;;;;;;;;;;;;;;;;;4999607;28;19920;-70
2023/03/27 10:01:24;;;;;;;;;;;;;;;;;;4976913;28;19979;-69
2023/03/27 10:03:50;;;;;;;;;;;;;;;;;;5005199;28;19924;-68
2023/03/27 10:06:16;;;;;;;;;;;;;;;;;;4999851;28;19921;-69
2023/03/27 10:08:44;;;;;;;;;;;;;;;;;;4980165;28;19974;-72
2023/03/27 10:11:09;;;;;;;;;;;;;;;;;;5011117;28;20437;-71
2023/03/27 10:13:38;;;;;;;;;;;;;;;;;;5000119;28;20679;-70
2023/03/27 10:16:04;;;;;;;;;;;;;;;;;;5019326;28;19916;-70
2023/03/27 10:21:58;;;;;;;;;;;;;;;;;;5020438;28;19927;-68
2023/03/27 10:24:24;;;;;;;;;;;;;;;;;;5002508;28;19924;-68
2023/03/27 10:26:52;;;;;;;;;;;;;;;;;;5000564;28;19966;-68
2023/03/27 10:29:18;;;;;;;;;;;;;;;;;;4980487;28;20422;-68
2023/03/27 10:31:43;;;;;;;;;;;;;;;;;;5001920;28;19923;-70
2023/03/27 10:34:09;;;;;;;;;;;;;;;;;;5001629;28;20841;-69
2023/03/27 10:36:34;;;;;;;;;;;;;;;;;;4997694;28;19975;-69
2023/03/27 10:39:00;;;;;;;;;;;;;;;;;;4992859;28;19975;-68
2023/03/27 10:41:28;;;;;;;;;;;;;;;;;;4988390;28;20027;-69
2023/03/27 10:43:54;;;;;;;;;;;;;;;;;;5015355;28;20002;-69
2023/03/27 10:46:19;;;;;;;;;;;;;;;;;;5017954;28;19927;-69
2023/03/27 10:48:46;;;;;;;;;;;;;;;;;;5028953;28;19932;-69
2023/03/27 10:54:31;;;;;;;;;;;;;;;;;;5016240;28;19998;-67
2023/03/27 10:57:01;;;;;;;;;;;;;;;;;;4998171;28;20177;-68
2023/03/27 10:59:29;;;;;;;;;;;;;;;;;;5014635;28;20368;-67
2023/03/27 11:01:54;;;;;;;;;;;;;;;;;;5018674;28;21371;-67
2023/03/27 11:04:20;;;;;;;;;;;;;;;;;;5018055;28;20622;-70
2023/03/27 11:06:45;;;;;;;;;;;;;;;;;;5013881;28;20023;-68
2023/03/27 11:09:14;;;;;;;;;;;;;;;;;;4995254;28;19921;-68
2023/03/27 11:11:42;;;;;;;;;;;;;;;;;;5016843;28;19964;-69
2023/03/27 11:14:10;;;;;;;;;;;;;;;;;;5001978;28;20031;-68
2023/03/27 11:16:36;;;;;;;;;;;;;;;;;;5000960;28;19925;-74
2023/03/27 11:19:01;;;;;;;;;;;;;;;;;;5019906;28;20388;-69
2023/03/27 11:21:26;;;;;;;;;;;;;;;;;;5018766;28;20011;-68
2023/03/27 11:23:53;;;;;;;;;;;;;;;;;;5016265;28;20384;-67
2023/03/27 11:26:18;;;;;;;;;;;;;;;;;;4982672;28;19986;-67
2023/03/27 11:28:45;;;;;;;;;;;;;;;;;;4996937;28;19920;-65
2023/03/27 11:31:21;;;;;;;;;;;;;;;;;;5018486;28;19917;-67
2023/03/27 11:33:46;;;;;;;;;;;;;;;;;;5017395;28;20448;-66
2023/03/27 11:36:15;;;;;;;;;;;;;;;;;;5001638;28;20189;-67
2023/03/27 11:38:41;;;;;;;;;;;;;;;;;;5016349;28;20022;-67
2023/03/27 11:41:08;;;;;;;;;;;;;;;;;;4998822;28;19917;-68
2023/03/27 11:43:34;;;;;;;;;;;;;;;;;;5019132;28;20631;-72
2023/03/27 11:45:59;;;;;;;;;;;;;;;;;;5016325;28;20743;-67
2023/03/27 11:48:25;;;;;;;;;;;;;;;;;;4985300;28;19923;-67
2023/03/27 11:50:51;;;;;;;;;;;;;;;;;;4995992;28;19960;-74
2023/03/27 11:53:20;;;;;;;;;;;;;;;;;;5014668;28;19924;-67
2023/03/27 11:55:45;;;;;;;;;;;;;;;;;;4982128;28;20325;-67
2023/03/27 11:58:10;;;;;;;;;;;;;;;;;;4976648;28;19991;-66
2023/03/27 12:00:36;;;;;;;;;;;;;;;;;;4974403;28;19999;-68
2023/03/27 12:03:01;;;;;;;;;;;;;;;;;;4980568;28;19925;-68
2023/03/27 12:05:26;;;;;;;;;;;;;;;;;;4967115;28;22602;-67
2023/03/27 12:07:52;;;;;;;;;;;;;;;;;;4966470;28;20331;-68
2023/03/27 12:10:19;;;;;;;;;;;;;;;;;;4998050;28;20355;-68
2023/03/27 12:12:45;;;;;;;;;;;;;;;;;;5014398;28;20395;-68
2023/03/27 12:15:10;;;;;;;;;;;;;;;;;;5001068;28;19917;-67
2023/03/27 12:17:35;;;;;;;;;;;;;;;;;;4982430;28;19917;-67
2023/03/27 12:23:17;;;;;;;;;;;;;;;;;;5000040;28;19924;-67
2023/03/27 12:25:44;;;;;;;;;;;;;;;;;;4982201;28;19933;-68
2023/03/27 12:28:10;;;;;;;;;;;;;;;;;;4984726;28;19917;-67
2023/03/27 12:30:35;;;;;;;;;;;;;;;;;;4977340;28;19975;-68
2023/03/27 12:33:19;;;;;;;;;;;;;;;;;;4999847;28;20279;-68
2023/03/27 12:35:44;;;;;;;;;;;;;;;;;;4970687;28;20316;-67
2023/03/27 12:38:12;;;;;;;;;;;;;;;;;;4979725;28;19921;-67
2023/03/27 12:40:38;;;;;;;;;;;;;;;;;;4969474;28;19975;-67
2023/03/27 12:43:03;;;;;;;;;;;;;;;;;;4967704;28;19924;-66
2023/03/27 12:45:28;;;;;;;;;;;;;;;;;;5000900;28;19945;-67
2023/03/27 12:47:53;;;;;;;;;;;;;;;;;;4984015;28;19942;-67
2023/03/27 12:50:19;;;;;;;;;;;;;;;;;;4998068;28;19998;-69
2023/03/27 12:52:47;;;;;;;;;;;;;;;;;;4984736;28;20328;-69
2023/03/27 12:55:16;;;;;;;;;;;;;;;;;;4987557;28;19928;-68
2023/03/27 12:57:41;;;;;;;;;;;;;;;;;;4985781;28;20316;-69
2023/03/27 13:00:09;;;;;;;;;;;;;;;;;;4998344;28;20380;-70
2023/03/27 13:02:37;;;;;;;;;;;;;;;;;;5002345;28;19964;-67
2023/03/27 13:05:03;;;;;;;;;;;;;;;;;;4992394;28;20260;-69
2023/03/27 13:07:30;;;;;;;;;;;;;;;;;;4970425;28;19921;-68
2023/03/27 13:09:59;;;;;;;;;;;;;;;;;;4995572;28;20087;-67
2023/03/27 13:12:24;;;;;;;;;;;;;;;;;;4983588;28;20800;-67
2023/03/27 13:14:49;;;;;;;;;;;;;;;;;;5005141;28;19976;-69
2023/03/27 13:17:15;;;;;;;;;;;;;;;;;;5001003;28;21578;-67
2023/03/27 13:19:40;;;;;;;;;;;;;;;;;;4998513;28;19917;-68
2023/03/27 13:22:08;;;;;;;;;;;;;;;;;;5006088;28;20051;-64
2023/03/27 13:24:33;;;;;;;;;;;;;;;;;;5018276;28;19936;-64
2023/03/27 13:27:01;;;;;;;;;;;;;;;;;;5019304;28;19955;-65
2023/03/27 13:29:27;;;;;;;;;;;;;;;;;;4996946;28;19925;-66
2023/03/27 13:31:54;;;;;;;;;;;;;;;;;;5017444;28;19921;-67
2023/03/27 13:34:19;;;;;;;;;;;;;;;;;;5023448;28;20015;-67
2023/03/27 13:36:46;;;;;;;;;;;;;;;;;;5019895;28;20388;-67
2023/03/27 13:39:12;;;;;;;;;;;;;;;;;;4978176;28;19928;-67
2023/03/27 13:41:38;;;;;;;;;;;;;;;;;;4994312;28;19921;-67
2023/03/27 13:44:09;;;;;;;;;;;;;;;;;;4990577;28;20418;-67
2023/03/27 13:46:35;;;;;;;;;;;;;;;;;;4989970;28;20542;-67
2023/03/27 13:49:01;;;;;;;;;;;;;;;;;;4985823;28;19990;-66
2023/03/27 13:51:27;;;;;;;;;;;;;;;;;;4972277;28;19967;-66
2023/03/27 13:53:52;;;;;;;;;;;;;;;;;;5005464;28;20803;-67
2023/03/27 13:56:17;;;;;;;;;;;;;;;;;;5010274;28;20003;-67
2023/03/27 13:58:43;;;;;;;;;;;;;;;;;;4995456;28;20497;-67
2023/03/27 14:01:08;;;;;;;;;;;;;;;;;;4989309;28;20370;-66
2023/03/27 14:03:38;;;;;;;;;;;;;;;;;;4988016;28;19995;-65
2023/03/27 14:06:04;;;;;;;;;;;;;;;;;;5005652;28;19920;-66
2023/03/27 14:08:31;;;;;;;;;;;;;;;;;;5010318;28;20025;-69
2023/03/27 14:10:59;;;;;;;;;;;;;;;;;;4969392;28;19972;-66
2023/03/27 14:13:25;;;;;;;;;;;;;;;;;;4988377;28;19927;-67
2023/03/27 14:15:53;;;;;;;;;;;;;;;;;;4989682;28;20266;-66
2023/03/27 14:18:19;;;;;;;;;;;;;;;;;;5004031;28;20417;-68
2023/03/27 14:20:46;;;;;;;;;;;;;;;;;;4989214;28;19986;-68
2023/03/27 14:23:15;;;;;;;;;;;;;;;;;;4993732;28;20341;-69
2023/03/27 14:25:43;;;;;;;;;;;;;;;;;;4984823;28;20019;-67
2023/03/27 14:28:09;;;;;;;;;;;;;;;;;;4977503;28;20384;-67
2023/03/27 14:30:34;;;;;;;;;;;;;;;;;;4994109;28;19916;-67
2023/03/27 14:32:59;;;;;;;;;;;;;;;;;;5006297;28;20357;-66
2023/03/27 14:35:26;;;;;;;;;;;;;;;;;;5001967;28;19917;-67
2023/03/27 14:37:55;;;;;;;;;;;;;;;;;;5009116;28;20465;-66
2023/03/27 14:40:21;;;;;;;;;;;;;;;;;;5006272;28;20377;-66
2023/03/27 14:42:47;;;;;;;;;;;;;;;;;;4991703;28;20339;-67
2023/03/27 14:45:12;;;;;;;;;;;;;;;;;;4967842;28;20016;-67
2023/03/27 14:47:37;;;;;;;;;;;;;;;;;;4979223;28;19921;-67
2023/03/27 14:50:05;;;;;;;;;;;;;;;;;;5017386;28;19935;-67
2023/03/27 14:52:33;;;;;;;;;;;;;;;;;;5008373;28;19938;-67
2023/03/27 14:55:00;;;;;;;;;;;;;;;;;;4984001;28;19928;-66
2023/03/27 14:57:26;;;;;;;;;;;;;;;;;;5014958;28;19921;-68
2023/03/27 14:59:51;;;;;;;;;;;;;;;;;;5004898;28;19921;-66
2023/03/27 15:02:16;;;;;;;;;;;;;;;;;;5011159;28;19924;-69
2023/03/27 15:04:47;;;;;;;;;;;;;;;;;;4973541;28;19952;-69
2023/03/27 15:07:14;;;;;;;;;;;;;;;;;;4988254;28;20454;-67
2023/03/27 15:09:40;;;;;;;;;;;;;;;;;;5001421;28;19921;-67
2023/03/27 15:12:06;;;;;;;;;;;;;;;;;;5005583;28;20173;-69
2023/03/27 15:14:34;;;;;;;;;;;;;;;;;;4984047;28;20316;-68
2023/03/27 15:17:00;;;;;;;;;;;;;;;;;;5004370;28;20584;-67
2023/03/27 15:19:28;;;;;;;;;;;;;;;;;;4990405;28;19955;-67
2023/03/27 15:21:55;;;;;;;;;;;;;;;;;;4985585;28;20361;-67
2023/03/27 15:24:23;;;;;;;;;;;;;;;;;;4990768;28;19958;-67
2023/03/27 15:26:49;;;;;;;;;;;;;;;;;;4987948;28;19960;-68
2023/03/27 15:29:16;;;;;;;;;;;;;;;;;;4985994;28;19979;-68
2023/03/27 15:31:42;;;;;;;;;;;;;;;;;;5012001;28;20368;-68
2023/03/27 15:34:07;;;;;;;;;;;;;;;;;;4993502;28;20037;-66
2023/03/27 15:36:33;;;;;;;;;;;;;;;;;;4981898;28;20648;-66
2023/03/27 15:39:03;;;;;;;;;;;;;;;;;;5002500;28;19959;-67
2023/03/27 15:41:31;;;;;;;;;;;;;;;;;;4985898;28;19936;-66
2023/03/27 15:43:57;;;;;;;;;;;;;;;;;;5007334;28;19971;-67
2023/03/27 15:46:24;;;;;;;;;;;;;;;;;;4999258;28;20460;-66
2023/03/27 15:48:55;;;;;;;;;;;;;;;;;;4998848;28;19927;-65
2023/03/27 15:51:20;;;;;;;;;;;;;;;;;;4976639;28;22911;-66
2023/03/27 15:53:46;;;;;;;;;;;;;;;;;;5014680;28;19928;-65
2023/03/27 15:56:11;;;;;;;;;;;;;;;;;;4999789;28;20246;-65
2023/03/27 15:58:37;;;;;;;;;;;;;;;;;;4982479;28;20729;-65
2023/03/27 16:01:02;;;;;;;;;;;;;;;;;;5006063;28;20467;-65
2023/03/27 16:03:27;;;;;;;;;;;;;;;;;;4997167;28;19928;-64
2023/03/27 16:05:59;;;;;;;;;;;;;;;;;;4995927;28;19916;-65
2023/03/27 16:08:24;;;;;;;;;;;;;;;;;;5011870;28;20856;-65
2023/03/27 16:10:54;;;;;;;;;;;;;;;;;;5015406;28;19921;-66
2023/03/27 16:13:20;;;;;;;;;;;;;;;;;;4998399;28;19975;-66
2023/03/27 16:15:49;;;;;;;;;;;;;;;;;;4998646;28;19917;-65
2023/03/27 16:18:14;;;;;;;;;;;;;;;;;;4979175;28;20650;-65
2023/03/27 16:20:42;;;;;;;;;;;;;;;;;;5016096;28;21667;-64
2023/03/27 16:23:08;;;;;;;;;;;;;;;;;;5000161;28;20269;-64
2023/03/27 16:25:34;;;;;;;;;;;;;;;;;;4979953;28;19964;-65
2023/03/27 16:28:02;;;;;;;;;;;;;;;;;;4978196;28;20275;-67
2023/03/27 16:30:28;;;;;;;;;;;;;;;;;;5027925;28;19920;-66
2023/03/27 16:32:53;;;;;;;;;;;;;;;;;;4996452;28;20074;-65
2023/03/27 16:35:21;;;;;;;;;;;;;;;;;;5027258;28;19955;-67
2023/03/27 16:37:49;;;;;;;;;;;;;;;;;;4981093;28;19921;-67
2023/03/27 16:40:18;;;;;;;;;;;;;;;;;;4996183;28;20380;-69
2023/03/27 16:42:49;;;;;;;;;;;;;;;;;;4991239;28;20304;-65
2023/03/27 16:45:15;;;;;;;;;;;;;;;;;;4985457;28;20031;-65
2023/03/27 16:47:59;;;;;;;;;;;;;;;;;;4999738;28;21815;-66
2023/03/27 16:50:25;;;;;;;;;;;;;;;;;;5004103;28;20003;-66
2023/03/27 16:52:53;;;;;;;;;;;;;;;;;;4986898;28;19921;-66
2023/03/27 16:55:21;;;;;;;;;;;;;;;;;;5004114;28;19987;-64
2023/03/27 16:57:51;;;;;;;;;;;;;;;;;;5018597;28;19932;-66
2023/03/27 17:00:21;;;;;;;;;;;;;;;;;;5003597;28;19921;-65
2023/03/27 17:02:47;;;;;;;;;;;;;;;;;;5002415;28;19916;-64